EPWAEPZG

Guest
Details From EPWA - WARSZAWA Okecie
To EPZG - ZIELONA GORA BABIMOST
Flight Number -
Tags generated
Created
Modified
Stats Distance 191 nm / 354 km
Max Altitude 24,900 ft / 7,590 m
Waypoints 4
Social Downloads 0
Likes 0
Share VATSIM

Download

Looking for another format? Having issues loading an existing format? Contact us
Advertisement - Login to hide

Notes

Basic altitude profile: - Ascent Rate: 2500ft/min - Ascent Speed: 250kts - Cruise Altitude: 35000ft - Cruise Speed: 420kts - Descent Rate: 1500ft/min - Descent Speed: 250kts Options: - Use NATs: yes - Use PACOTS: yes - Use low airways: yes - Use high airways: yes

Route

EPWA AMUTO P150 OBOKU EPZG

ID Type Via Altitude Latitude Longitude Leg Dist Tot Dist Heading (true) Name
O EPWA APT - 0 ft / 0 m 52.16509˚ 20.96692˚ - 0 nm - WARSZAWA Okecie
AMUTO FIX - 24,900 ft / 7,590 m 52.33333˚ 18.94583˚ 74 nm 74 nm 279° / 277° -
OBOKU FIX P150 (AWY-LO) 16,400 ft / 4,999 m 52.25222˚ 18.00000˚ 35 nm 110 nm 262° / 262° -
O EPZG APT - 0 ft / 0 m 52.13863˚ 15.79840˚ 81 nm 191 nm 266° / 264° ZIELONA GORA BABIMOST

Altitude Profile

Advertisement - Login to hide

Weather


0- 5 10 15 20 25 30 35+ Temperature / ° C

Clouds and Precipitation
Forecast for 2017-12-17 00:00 UTC. Updated an hour ago

Ground ~20,000 ft ~40,000 ft Winds

EPWA

Details ICAO EPWA (WAW)
Name WARSZAWA Okecie
Region Poland
Timezone Europe/Warsaw (UTC+1.0)
Stats Elevation 328 ft / 100 m (AMSL)
Location 52.165091° 20.966923°
Runways 2
Magnetic Variation 5.802° E

METAR

EPWA 170000Z 24004KT 9000 -RA BKN010 01/M00 Q1010 TEMPO BKN009

Decode

TAF

TAF TAF EPWA 162330Z 1700/1724 24006KT 7000 BKN010 TEMPO 1700/1708 4000 BR BKN006 PROB40 TEMPO 1700/1709 2000 -SN BR BKN003 BECMG 1708/1711 SCT020 BECMG 1714/1717 2000 BR

Decode

Departure Runways

ID Width Length Bearing (true) Bearing (mag) Surface Threshold Offset Overrun Length
11 164 ft / 50 m 9,163 ft / 2,793 m 114.64° 108.84° Asphalt 0 ft / 0 m 476 ft / 145 m
15 197 ft / 60 m 12,112 ft / 3,692 m 151.85° 146.05° Asphalt 0 ft / 0 m 0 ft / 0 m
29 164 ft / 50 m 9,163 ft / 2,793 m 294.67° 288.87° Asphalt 1,608 ft / 490 m 0 ft / 0 m
33 197 ft / 60 m 12,112 ft / 3,692 m 331.87° 326.07° Asphalt 0 ft / 0 m 0 ft / 0 m

EPZG

Details ICAO EPZG (IEG)
Name ZIELONA GORA BABIMOST
Region Poland
Timezone Europe/Warsaw (UTC+1.0)
Stats Elevation 193 ft / 59 m (AMSL)
Location 52.138633° 15.798400°
Runways 1
Magnetic Variation 4.427° E

METAR

EPZG 170000Z 23008KT 4000 BR BKN008 OVC011 02/02 Q1011

Decode

TAF

Not found

Destination Runways

ID Width Length Bearing (true) Bearing (mag) Surface Threshold Offset Overrun Length
06 197 ft / 60 m 8,169 ft / 2,490 m 64.50° 60.07° Concrete 0 ft / 0 m 0 ft / 0 m
24 197 ft / 60 m 8,169 ft / 2,490 m 244.52° 240.09° Concrete 0 ft / 0 m 0 ft / 0 m

Popular Alternatives